createdAt,value
2022-10-11T07:31:39.859Z,14.60
2022-10-11T07:34:06.853Z,14.70
2022-10-11T07:36:33.583Z,15.10
2022-10-11T07:39:00.543Z,15.40
2022-10-11T07:41:27.255Z,15.50
2022-10-11T07:43:55.055Z,15.70
2022-10-11T07:46:21.961Z,15.80
2022-10-11T07:48:50.212Z,16.00
2022-10-11T07:51:21.312Z,16.10
2022-10-11T07:53:49.283Z,16.10
2022-10-11T07:56:17.559Z,16.00
2022-10-11T07:58:44.554Z,15.70
2022-10-11T08:01:11.746Z,15.70
2022-10-11T08:03:38.541Z,15.90
2022-10-11T08:06:07.616Z,16.10
2022-10-11T08:08:35.005Z,16.50
2022-10-11T08:15:58.837Z,17.70
2022-10-11T08:18:25.650Z,18.00
2022-10-11T08:20:52.420Z,18.10
2022-10-11T08:23:19.334Z,18.10
2022-10-11T08:25:47.099Z,17.90
2022-10-11T08:28:17.298Z,17.60
2022-10-11T08:30:48.216Z,17.40
2022-10-11T08:33:15.408Z,17.50
2022-10-11T08:35:42.203Z,17.90
2022-10-11T08:38:08.939Z,18.40
2022-10-11T08:40:35.832Z,18.70
2022-10-11T08:43:04.124Z,18.70
2022-10-11T08:45:33.066Z,18.80
2022-10-11T08:48:05.537Z,19.00
2022-10-11T08:50:32.727Z,19.30
2022-10-11T08:53:02.416Z,19.60
2022-10-11T08:55:29.163Z,19.90
2022-10-11T08:57:56.722Z,20.40
2022-10-11T09:03:14.722Z,21.20
2022-10-11T09:05:57.534Z,21.40
2022-10-11T09:08:50.733Z,21.70
2022-10-11T09:11:17.433Z,22.00
2022-10-11T09:13:49.459Z,22.20
2022-10-11T09:16:18.905Z,22.50
2022-10-11T09:19:04.239Z,22.60
2022-10-11T09:21:50.586Z,22.70
2022-10-11T09:24:17.270Z,22.70
2022-10-11T09:26:51.369Z,22.90
2022-10-11T09:29:27.328Z,23.00
2022-10-11T09:31:55.933Z,23.20
2022-10-11T09:34:25.832Z,23.20
2022-10-11T09:37:11.164Z,23.00
2022-10-11T09:39:42.066Z,23.00
2022-10-11T09:42:09.990Z,23.30
2022-10-11T09:44:37.078Z,23.40
2022-10-11T09:47:04.739Z,23.60
2022-10-11T09:49:33.616Z,23.50
2022-10-11T09:52:01.984Z,23.40
2022-10-11T09:54:45.151Z,23.40
2022-10-11T09:57:25.762Z,23.20
2022-10-11T10:00:06.673Z,22.80
2022-10-11T10:02:41.527Z,22.70
2022-10-11T10:05:08.231Z,22.70
2022-10-11T10:07:35.702Z,22.50
2022-10-11T10:10:21.287Z,22.40
2022-10-11T10:12:53.569Z,22.10
2022-10-11T10:15:29.403Z,21.70
2022-10-11T10:17:56.423Z,21.40
2022-10-11T10:20:27.430Z,21.20
2022-10-11T10:22:54.280Z,21.10
2022-10-11T10:25:43.300Z,20.90
2022-10-11T10:28:24.375Z,21.00
2022-10-11T10:30:55.540Z,21.00
2022-10-11T10:33:23.525Z,21.20
2022-10-11T10:36:00.216Z,21.30
2022-10-11T10:38:35.503Z,21.30
2022-10-11T10:41:04.151Z,21.30
2022-10-11T10:43:35.001Z,21.30
2022-10-11T10:46:08.299Z,21.40
2022-10-11T10:49:52.627Z,21.20
2022-10-11T10:51:57.891Z,20.60
2022-10-11T10:54:43.531Z,20.10
2022-10-11T10:57:14.684Z,19.90
2022-10-11T10:59:41.585Z,20.20
2022-10-11T11:02:39.564Z,20.40
2022-10-11T11:05:21.564Z,20.40
2022-10-11T11:07:51.432Z,20.20
2022-10-11T11:10:18.303Z,20.00
2022-10-11T11:12:45.206Z,19.80
2022-10-11T11:15:32.044Z,19.60
2022-10-11T11:18:11.397Z,19.40
2022-10-11T11:20:41.034Z,19.10
2022-10-11T11:23:20.021Z,19.10
2022-10-11T11:25:56.859Z,19.20
2022-10-11T11:28:23.704Z,19.40
2022-10-11T11:31:19.866Z,19.60
2022-10-11T11:33:54.367Z,19.90
2022-10-11T11:36:43.457Z,19.90
2022-10-11T11:39:18.189Z,20.00
2022-10-11T11:41:50.295Z,20.40
2022-10-11T11:44:27.115Z,20.60
2022-10-11T11:47:02.492Z,20.90
2022-10-11T11:49:31.914Z,20.90
2022-10-11T11:51:59.199Z,20.80
2022-10-11T11:54:39.545Z,20.50
2022-10-11T11:57:26.574Z,20.30
2022-10-11T12:00:04.072Z,19.90
2022-10-11T12:02:38.037Z,19.50
2022-10-11T12:05:08.978Z,19.30
2022-10-11T12:07:56.602Z,19.10
2022-10-11T12:10:28.756Z,19.00
2022-10-11T12:13:14.160Z,19.20
2022-10-11T12:15:54.134Z,19.40
2022-10-11T12:18:21.065Z,19.40
2022-10-11T12:21:00.283Z,19.30
2022-10-11T12:23:30.101Z,19.20
2022-10-11T12:26:15.571Z,19.20
2022-10-11T12:28:42.910Z,19.10
2022-10-11T12:31:24.283Z,19.00
2022-10-11T12:33:53.994Z,18.70
2022-10-11T12:36:23.594Z,18.50
2022-10-11T12:39:09.220Z,18.30
2022-10-11T12:41:38.622Z,18.20
2022-10-11T12:44:19.799Z,18.00
2022-10-11T12:46:56.098Z,18.00
2022-10-11T12:49:38.298Z,17.70
2022-10-11T12:52:18.012Z,17.60
2022-10-11T12:55:01.194Z,17.80
2022-10-11T12:57:47.633Z,18.10
2022-10-11T13:00:29.333Z,18.40
2022-10-11T13:03:16.479Z,18.70
2022-10-11T13:05:45.899Z,18.90
2022-10-11T13:08:27.273Z,19.10
2022-10-11T13:10:57.370Z,19.40
2022-10-11T13:13:27.320Z,19.50
2022-10-11T13:15:55.924Z,19.80
2022-10-11T13:18:24.538Z,19.80
2022-10-11T13:20:51.932Z,19.90
2022-10-11T13:23:27.554Z,19.60
2022-10-11T13:25:55.494Z,19.50
2022-10-11T13:28:23.748Z,19.60
2022-10-11T13:30:54.903Z,19.90
2022-10-11T13:33:25.514Z,20.10
2022-10-11T13:35:52.733Z,20.40
2022-10-11T13:38:24.095Z,20.60
2022-10-11T13:40:51.344Z,20.90
2022-10-11T13:43:23.160Z,21.00
2022-10-11T13:45:50.080Z,21.00
2022-10-11T13:48:16.885Z,21.10
2022-10-11T13:50:51.188Z,21.10
2022-10-11T13:53:17.906Z,20.80
2022-10-11T13:55:49.867Z,20.20
2022-10-11T13:58:25.674Z,19.90
2022-10-11T14:00:53.693Z,19.60
2022-10-11T14:03:21.124Z,19.40
2022-10-11T14:05:55.648Z,19.20
2022-10-11T14:08:29.782Z,18.90
2022-10-11T14:10:58.549Z,18.70
2022-10-11T14:13:31.928Z,18.50
2022-10-11T14:16:09.484Z,18.40
2022-10-11T14:18:39.550Z,18.30
2022-10-11T14:21:26.244Z,18.10
2022-10-11T14:23:55.277Z,18.00
2022-10-11T14:26:22.654Z,17.70
2022-10-11T14:28:51.225Z,17.50
2022-10-11T14:31:18.118Z,17.30
2022-10-11T14:33:45.667Z,17.20
2022-10-11T14:36:12.422Z,17.30
2022-10-11T14:38:39.252Z,17.20
2022-10-11T14:41:06.222Z,17.20
2022-10-11T14:43:33.059Z,17.20
2022-10-11T14:45:59.832Z,17.10
2022-10-11T14:48:53.613Z,17.10
2022-10-11T14:51:18.859Z,17.10
2022-10-11T14:53:46.795Z,17.10
2022-10-11T14:56:17.738Z,17.10
2022-10-11T14:58:47.672Z,17.00
2022-10-11T15:01:16.092Z,16.90
2022-10-11T15:03:43.977Z,16.70
2022-10-11T15:06:15.608Z,16.50
2022-10-11T15:08:42.490Z,16.50
2022-10-11T15:11:10.505Z,16.40
2022-10-11T15:13:37.382Z,16.40
2022-10-11T15:16:04.710Z,16.30
2022-10-11T15:18:32.398Z,16.20
2022-10-11T15:21:00.527Z,16.20
2022-10-11T15:23:27.819Z,16.10
2022-10-11T15:25:54.694Z,16.00
2022-10-11T15:28:26.921Z,15.90
2022-10-11T15:30:54.359Z,15.80
2022-10-11T15:33:21.888Z,15.70
2022-10-11T15:35:48.854Z,15.60
2022-10-11T15:38:16.931Z,15.50
2022-10-11T15:40:44.038Z,15.50
2022-10-11T15:43:10.838Z,15.40
2022-10-11T15:45:37.698Z,15.40
2022-10-11T15:48:04.477Z,15.40
2022-10-11T15:50:41.473Z,15.30
2022-10-11T15:53:09.938Z,15.20
2022-10-11T15:55:39.660Z,15.10
2022-10-11T15:58:10.519Z,15.10
2022-10-11T16:00:37.287Z,15.10
2022-10-11T16:03:04.133Z,15.00
2022-10-11T16:05:31.253Z,15.00
2022-10-11T16:07:58.201Z,14.90
2022-10-11T16:10:24.992Z,14.90
2022-10-11T16:12:51.800Z,14.90
2022-10-11T16:15:18.703Z,14.80
2022-10-11T16:17:46.563Z,14.70
2022-10-11T16:20:13.653Z,14.70
2022-10-11T16:22:40.897Z,14.60
2022-10-11T16:25:07.740Z,14.50
2022-10-11T16:27:34.479Z,14.50
2022-10-11T16:30:01.417Z,14.40
2022-10-11T16:32:28.193Z,14.20
2022-10-11T16:34:54.919Z,14.20
2022-10-11T16:37:21.648Z,14.10
2022-10-11T16:39:48.390Z,14.00
2022-10-11T16:42:15.108Z,14.00
2022-10-11T16:44:43.654Z,13.90
2022-10-11T16:47:11.921Z,13.70
2022-10-11T16:49:39.944Z,13.60
2022-10-11T16:52:10.649Z,13.50
2022-10-11T16:54:38.629Z,13.40
2022-10-11T16:57:06.397Z,13.30
2022-10-11T16:59:33.704Z,13.20
2022-10-11T17:02:02.237Z,13.10
2022-10-11T17:04:29.783Z,13.00
2022-10-11T17:06:58.213Z,12.90
2022-10-11T17:09:25.356Z,12.90
2022-10-11T17:11:52.286Z,12.80
2022-10-11T17:14:19.210Z,12.70
2022-10-11T19:40:03.983Z,9.10
2022-10-11T19:42:31.028Z,9.10
2022-10-11T19:44:58.042Z,9.00
2022-10-11T19:47:24.799Z,8.90
2022-10-11T19:49:51.479Z,8.80
2022-10-11T19:52:18.562Z,8.80
2022-10-11T19:54:45.655Z,8.70
2022-10-11T19:57:12.586Z,8.60
2022-10-11T19:59:39.347Z,8.60
2022-10-11T20:02:06.269Z,8.50
2022-10-11T20:04:51.475Z,8.50
2022-10-11T20:07:19.128Z,8.40
2022-10-11T20:09:46.248Z,8.30
2022-10-11T20:12:12.914Z,8.20
2022-10-11T20:14:39.633Z,8.20
2022-10-11T20:17:06.345Z,8.20
2022-10-11T20:19:33.054Z,8.20
2022-10-11T20:22:00.422Z,8.10
2022-10-11T20:24:29.424Z,8.10
2022-10-11T20:26:56.209Z,8.00
2022-10-11T20:29:23.892Z,8.00
2022-10-11T20:31:50.627Z,7.90
2022-10-11T20:34:17.302Z,7.80
2022-10-11T20:36:48.917Z,7.80
2022-10-11T20:39:16.407Z,7.70
2022-10-11T20:41:43.750Z,7.80
2022-10-11T20:44:12.431Z,7.80
2022-10-11T20:46:39.555Z,7.70
2022-10-11T23:36:02.178Z,6.00
2022-10-11T23:38:28.939Z,5.90
2022-10-11T23:40:55.799Z,5.90
2022-10-11T23:43:22.830Z,5.80
2022-10-11T23:45:49.601Z,5.80
2022-10-11T23:48:16.602Z,5.90
2022-10-11T23:50:43.420Z,5.90
2022-10-11T23:53:10.624Z,5.90
2022-10-11T23:55:37.343Z,5.80
2022-10-11T23:58:04.015Z,5.80
